M/V Hera — V7UA5 — position and weather

sailwx.info

Track history (hours):
 
Tides and Currents Weather Stations Pressure Air Temp Water Temp Dewpoint Dewpoint Depression Visibility Wind Speed Wind Dir Waves Ship Positions

M/V Hera

Last reported at 2014-Nov-01 02:32 UTC. Time now 2014-Nov-01 09:04 UTC.
Position S 34°45' W 057°40'.

Length 175 m; draft 10.1 m.

Type: Cargo ship. MMSI: 538003917.

Date/timePositionNaut miles runAvg speedWind from/ knotsBaromVisibWave heightAir tempDewpointWater temp
2014-Nov-01 02:32S 34°45' W 057°40'7 6.8
2014-Nov-01 01:34S 34°44' W 057°48'5 5.1
2014-Nov-01 00:33S 34°42' W 057°54'7 7.2
2014-Oct-31 23:33S 34°40' W 058°02'8 7.8
2014-Oct-31 22:34S 34°37' W 058°11'9 8.4
2014-Oct-31 21:30S 34°32' W 058°20'  
2014-Oct-27 10:11S 34°15' W 058°44'6 8.9
2014-Oct-27 09:33S 34°16' W 058°37'8 8.3
2014-Oct-27 08:33S 34°21' W 058°29'8 8.4
2014-Oct-27 07:33S 34°28' W 058°24'9 9.2
2014-Oct-27 06:33S 34°35' W 058°16'9 9.2
2014-Oct-27 05:33S 34°38' W 058°06'8 8.1
2014-Oct-27 04:33S 34°41' W 057°57'8 8.5
2014-Oct-27 03:33S 34°46' W 057°48'0 0.1
2014-Oct-27 02:33S 34°46' W 057°48'0 0.0
2014-Oct-27 01:33S 34°46' W 057°48'0 0.0
2014-Oct-27 00:33S 34°46' W 057°49'0 0.0
2014-Oct-26 23:33S 34°46' W 057°49'0 0.1
2014-Oct-26 22:33S 34°46' W 057°49'0 0.0
2014-Oct-26 21:33S 34°46' W 057°49'0 0.0
2014-Oct-26 20:33S 34°46' W 057°49'0 0.0
2014-Oct-26 19:33S 34°46' W 057°49'0 0.2
2014-Oct-26 18:33S 34°46' W 057°48'0 0.0
2014-Oct-26 17:33S 34°46' W 057°48'0 0.0
2014-Oct-26 16:33S 34°46' W 057°48'0 0.0
2014-Oct-26 15:33S 34°46' W 057°48'0 0.0
2014-Oct-26 14:33S 34°46' W 057°48'0 0.0
2014-Oct-26 13:33S 34°46' W 057°48'0 0.0
2014-Oct-26 12:33S 34°46' W 057°48'0 0.0
2014-Oct-26 11:33S 34°46' W 057°48'0 0.0
2014-Oct-26 10:21S 34°46' W 057°48'0 0.0
2014-Oct-26 09:30S 34°46' W 057°49'0 0.0
2014-Oct-26 08:30S 34°46' W 057°49'0 0.0
2014-Oct-26 07:33S 34°46' W 057°49'0 0.0
2014-Oct-26 06:33S 34°46' W 057°49'0 0.0
2014-Oct-26 05:33S 34°46' W 057°48'0 0.1
2014-Oct-26 04:33S 34°46' W 057°48'0 0.0
2014-Oct-26 03:33S 34°46' W 057°48'0 0.0
2014-Oct-26 02:33S 34°46' W 057°48'0 0.1
2014-Oct-26 01:33S 34°46' W 057°48'0 0.1
2014-Oct-26 00:33S 34°46' W 057°49'0 0.1
2014-Oct-25 23:30S 34°46' W 057°49'0 0.0
2014-Oct-25 22:33S 34°46' W 057°49'0 0.0
2014-Oct-25 21:33S 34°46' W 057°49'0 0.0
2014-Oct-25 20:33S 34°46' W 057°49'0 0.1
2014-Oct-25 19:33S 34°46' W 057°48'0 0.1
2014-Oct-25 18:33S 34°46' W 057°48'0 0.1
2014-Oct-25 17:33S 34°46' W 057°48'0 0.0
2014-Oct-25 16:33S 34°46' W 057°48'0 0.0
2014-Oct-25 15:33S 34°46' W 057°48'0 0.0
2014-Oct-25 14:33S 34°46' W 057°48'0 0.0
2014-Oct-25 13:33S 34°46' W 057°48'0 0.0
2014-Oct-25 12:31S 34°46' W 057°48'1 0.5
2014-Oct-25 11:33S 34°46' W 057°48'9 8.5
2014-Oct-25 10:33S 34°45' W 057°37'1110.9
2014-Oct-25 09:32S 34°50' W 057°25'69 8.6
2014-Oct-25 01:33S 34°59' W 056°02'17 8.1
2014-Oct-24 23:25S 35°04' W 055°42'8 9.1
2014-Oct-24 22:30S 35°08' W 055°33'6 1.9
2014-Oct-24 19:26S 35°14' W 055°31'0 0.0
2014-Oct-24 18:20S 35°14' W 055°31'0 0.0
2014-Oct-24 17:29S 35°14' W 055°31'0 0.0
2014-Oct-24 16:32S 35°14' W 055°31'  
Track history (hours):
 
Tides and Currents Weather Stations Pressure Air Temp Water Temp Dewpoint Dewpoint Depression Visibility Wind Speed Wind Dir Waves Ship Positions

M/V Hera

Last reported at 2014-Nov-01 02:32 UTC. Time now 2014-Nov-01 09:04 UTC.
Position S 34°45' W 057°40'.

Length 175 m; draft 10.1 m.

Type: Cargo ship. MMSI: 538003917.

Date/timePositionNaut miles runAvg speedWind from/ knotsBaromVisibWave heightAir tempDewpointWater temp
2014-Nov-01 02:32S 34°45' W 057°40'7 6.8
2014-Nov-01 01:34S 34°44' W 057°48'5 5.1
2014-Nov-01 00:33S 34°42' W 057°54'7 7.2
2014-Oct-31 23:33S 34°40' W 058°02'8 7.8
2014-Oct-31 22:34S 34°37' W 058°11'9 8.4
2014-Oct-31 21:30S 34°32' W 058°20'  
2014-Oct-27 10:11S 34°15' W 058°44'6 8.9
2014-Oct-27 09:33S 34°16' W 058°37'8 8.3
2014-Oct-27 08:33S 34°21' W 058°29'8 8.4
2014-Oct-27 07:33S 34°28' W 058°24'9 9.2
2014-Oct-27 06:33S 34°35' W 058°16'9 9.2
2014-Oct-27 05:33S 34°38' W 058°06'8 8.1
2014-Oct-27 04:33S 34°41' W 057°57'8 8.5
2014-Oct-27 03:33S 34°46' W 057°48'0 0.1
2014-Oct-27 02:33S 34°46' W 057°48'0 0.0
2014-Oct-27 01:33S 34°46' W 057°48'0 0.0
2014-Oct-27 00:33S 34°46' W 057°49'0 0.0
2014-Oct-26 23:33S 34°46' W 057°49'0 0.1
2014-Oct-26 22:33S 34°46' W 057°49'0 0.0
2014-Oct-26 21:33S 34°46' W 057°49'0 0.0
2014-Oct-26 20:33S 34°46' W 057°49'0 0.0
2014-Oct-26 19:33S 34°46' W 057°49'0 0.2
2014-Oct-26 18:33S 34°46' W 057°48'0 0.0
2014-Oct-26 17:33S 34°46' W 057°48'0 0.0
2014-Oct-26 16:33S 34°46' W 057°48'0 0.0
2014-Oct-26 15:33S 34°46' W 057°48'0 0.0
2014-Oct-26 14:33S 34°46' W 057°48'0 0.0
2014-Oct-26 13:33S 34°46' W 057°48'0 0.0
2014-Oct-26 12:33S 34°46' W 057°48'0 0.0
2014-Oct-26 11:33S 34°46' W 057°48'0 0.0
2014-Oct-26 10:21S 34°46' W 057°48'0 0.0
2014-Oct-26 09:30S 34°46' W 057°49'0 0.0
2014-Oct-26 08:30S 34°46' W 057°49'0 0.0
2014-Oct-26 07:33S 34°46' W 057°49'0 0.0
2014-Oct-26 06:33S 34°46' W 057°49'0 0.0
2014-Oct-26 05:33S 34°46' W 057°48'0 0.1
2014-Oct-26 04:33S 34°46' W 057°48'0 0.0
2014-Oct-26 03:33S 34°46' W 057°48'0 0.0
2014-Oct-26 02:33S 34°46' W 057°48'0 0.1
2014-Oct-26 01:33S 34°46' W 057°48'0 0.1
2014-Oct-26 00:33S 34°46' W 057°49'0 0.1
2014-Oct-25 23:30S 34°46' W 057°49'0 0.0
2014-Oct-25 22:33S 34°46' W 057°49'0 0.0
2014-Oct-25 21:33S 34°46' W 057°49'0 0.0
2014-Oct-25 20:33S 34°46' W 057°49'0 0.1
2014-Oct-25 19:33S 34°46' W 057°48'0 0.1
2014-Oct-25 18:33S 34°46' W 057°48'0 0.1
2014-Oct-25 17:33S 34°46' W 057°48'0 0.0
2014-Oct-25 16:33S 34°46' W 057°48'0 0.0
2014-Oct-25 15:33S 34°46' W 057°48'0 0.0
2014-Oct-25 14:33S 34°46' W 057°48'0 0.0
2014-Oct-25 13:33S 34°46' W 057°48'0 0.0
2014-Oct-25 12:31S 34°46' W 057°48'1 0.5
2014-Oct-25 11:33S 34°46' W 057°48'9 8.5
2014-Oct-25 10:33S 34°45' W 057°37'1110.9
2014-Oct-25 09:32S 34°50' W 057°25'69 8.6
2014-Oct-25 01:33S 34°59' W 056°02'17 8.1
2014-Oct-24 23:25S 35°04' W 055°42'8 9.1
2014-Oct-24 22:30S 35°08' W 055°33'6 1.9
2014-Oct-24 19:26S 35°14' W 055°31'0 0.0
2014-Oct-24 18:20S 35°14' W 055°31'0 0.0
2014-Oct-24 17:29S 35°14' W 055°31'0 0.0
2014-Oct-24 16:32S 35°14' W 055°31'  

Dump ship's entire track history